sensor_id;sensor_type;location;lat;lon;timestamp;temperature;humidity
65378;SHT31;51982;51.042;13.806;2024-01-07T00:01:56;3.90;78.30
65378;SHT31;51982;51.042;13.806;2024-01-07T00:04:22;4.00;78.45
65378;SHT31;51982;51.042;13.806;2024-01-07T00:06:47;3.59;78.42
65378;SHT31;51982;51.042;13.806;2024-01-07T00:09:12;3.76;78.71
65378;SHT31;51982;51.042;13.806;2024-01-07T00:11:38;3.93;78.68
65378;SHT31;51982;51.042;13.806;2024-01-07T00:14:03;3.92;78.58
65378;SHT31;51982;51.042;13.806;2024-01-07T00:16:28;3.82;78.58
65378;SHT31;51982;51.042;13.806;2024-01-07T00:18:54;3.68;78.93
65378;SHT31;51982;51.042;13.806;2024-01-07T00:21:19;3.78;78.86
65378;SHT31;51982;51.042;13.806;2024-01-07T00:23:45;3.75;78.87
65378;SHT31;51982;51.042;13.806;2024-01-07T00:26:10;3.71;79.26
65378;SHT31;51982;51.042;13.806;2024-01-07T00:28:35;3.51;79.30
65378;SHT31;51982;51.042;13.806;2024-01-07T00:31:00;3.36;79.67
65378;SHT31;51982;51.042;13.806;2024-01-07T00:33:26;3.58;80.90
65378;SHT31;51982;51.042;13.806;2024-01-07T00:35:51;3.45;80.99
65378;SHT31;51982;51.042;13.806;2024-01-07T00:38:16;3.51;81.49
65378;SHT31;51982;51.042;13.806;2024-01-07T00:40:41;3.54;81.86
65378;SHT31;51982;51.042;13.806;2024-01-07T00:43:07;3.52;81.34
65378;SHT31;51982;51.042;13.806;2024-01-07T00:45:32;3.58;81.77
65378;SHT31;51982;51.042;13.806;2024-01-07T00:47:57;3.51;80.85
65378;SHT31;51982;51.042;13.806;2024-01-07T00:50:22;3.45;80.70
65378;SHT31;51982;51.042;13.806;2024-01-07T00:52:47;3.42;80.83
65378;SHT31;51982;51.042;13.806;2024-01-07T00:55:13;3.62;81.13
65378;SHT31;51982;51.042;13.806;2024-01-07T00:57:38;3.52;80.29
65378;SHT31;51982;51.042;13.806;2024-01-07T01:00:07;3.49;80.06
65378;SHT31;51982;51.042;13.806;2024-01-07T01:02:33;3.54;79.87
65378;SHT31;51982;51.042;13.806;2024-01-07T01:04:58;3.59;79.81
65378;SHT31;51982;51.042;13.806;2024-01-07T01:07:23;3.59;79.75
65378;SHT31;51982;51.042;13.806;2024-01-07T01:09:48;3.34;78.84
65378;SHT31;51982;51.042;13.806;2024-01-07T01:12:14;3.07;79.21
65378;SHT31;51982;51.042;13.806;2024-01-07T01:14:39;3.22;79.30
65378;SHT31;51982;51.042;13.806;2024-01-07T01:17:04;3.25;79.13
65378;SHT31;51982;51.042;13.806;2024-01-07T01:19:29;3.38;78.96
65378;SHT31;51982;51.042;13.806;2024-01-07T01:21:55;3.42;78.61
65378;SHT31;51982;51.042;13.806;2024-01-07T01:24:20;3.42;78.49
65378;SHT31;51982;51.042;13.806;2024-01-07T01:26:45;3.39;78.60
65378;SHT31;51982;51.042;13.806;2024-01-07T01:29:10;3.24;78.63
65378;SHT31;51982;51.042;13.806;2024-01-07T01:31:36;3.24;78.67
65378;SHT31;51982;51.042;13.806;2024-01-07T01:34:01;3.36;78.83
65378;SHT31;51982;51.042;13.806;2024-01-07T01:36:26;3.46;78.78
65378;SHT31;51982;51.042;13.806;2024-01-07T01:38:51;3.49;78.55
65378;SHT31;51982;51.042;13.806;2024-01-07T01:41:17;3.62;78.70
65378;SHT31;51982;51.042;13.806;2024-01-07T01:43:42;3.42;78.58
65378;SHT31;51982;51.042;13.806;2024-01-07T01:46:07;3.17;78.98
65378;SHT31;51982;51.042;13.806;2024-01-07T01:48:33;3.22;79.33
65378;SHT31;51982;51.042;13.806;2024-01-07T01:51:00;3.27;79.38
65378;SHT31;51982;51.042;13.806;2024-01-07T01:53:26;3.38;79.37
65378;SHT31;51982;51.042;13.806;2024-01-07T01:55:56;3.18;79.23
65378;SHT31;51982;51.042;13.806;2024-01-07T01:58:23;3.21;79.33
65378;SHT31;51982;51.042;13.806;2024-01-07T02:00:48;3.24;79.22
65378;SHT31;51982;51.042;13.806;2024-01-07T02:03:16;3.24;78.95
65378;SHT31;51982;51.042;13.806;2024-01-07T02:05:41;3.12;78.75
65378;SHT31;51982;51.042;13.806;2024-01-07T02:08:06;3.18;78.87
65378;SHT31;51982;51.042;13.806;2024-01-07T02:10:32;3.17;78.65
65378;SHT31;51982;51.042;13.806;2024-01-07T02:13:01;3.14;78.31
65378;SHT31;51982;51.042;13.806;2024-01-07T02:15:26;2.97;78.33
65378;SHT31;51982;51.042;13.806;2024-01-07T02:17:51;2.70;78.38
65378;SHT31;51982;51.042;13.806;2024-01-07T02:20:17;2.91;78.32
65378;SHT31;51982;51.042;13.806;2024-01-07T02:22:42;2.91;77.92
65378;SHT31;51982;51.042;13.806;2024-01-07T02:25:07;2.83;77.99
65378;SHT31;51982;51.042;13.806;2024-01-07T02:27:33;2.96;77.98
65378;SHT31;51982;51.042;13.806;2024-01-07T02:29:59;2.87;77.82
65378;SHT31;51982;51.042;13.806;2024-01-07T02:32:24;2.96;77.80
65378;SHT31;51982;51.042;13.806;2024-01-07T02:34:49;2.80;77.91
65378;SHT31;51982;51.042;13.806;2024-01-07T02:37:14;2.89;77.93
65378;SHT31;51982;51.042;13.806;2024-01-07T02:39:40;2.73;78.05
65378;SHT31;51982;51.042;13.806;2024-01-07T02:42:05;2.77;78.05
65378;SHT31;51982;51.042;13.806;2024-01-07T02:44:30;2.86;78.12
65378;SHT31;51982;51.042;13.806;2024-01-07T02:46:55;2.94;78.06
65378;SHT31;51982;51.042;13.806;2024-01-07T02:49:21;2.57;77.79
65378;SHT31;51982;51.042;13.806;2024-01-07T02:51:46;2.61;78.39
65378;SHT31;51982;51.042;13.806;2024-01-07T02:54:14;2.73;78.24
65378;SHT31;51982;51.042;13.806;2024-01-07T02:56:39;2.67;78.01
65378;SHT31;51982;51.042;13.806;2024-01-07T02:59:04;2.84;77.53
65378;SHT31;51982;51.042;13.806;2024-01-07T03:01:30;2.75;77.47
65378;SHT31;51982;51.042;13.806;2024-01-07T03:03:55;2.97;77.52
65378;SHT31;51982;51.042;13.806;2024-01-07T03:06:20;2.77;77.09
65378;SHT31;51982;51.042;13.806;2024-01-07T03:08:47;2.76;77.25
65378;SHT31;51982;51.042;13.806;2024-01-07T03:11:13;2.67;77.37
65378;SHT31;51982;51.042;13.806;2024-01-07T03:13:40;2.84;77.19
65378;SHT31;51982;51.042;13.806;2024-01-07T03:16:05;2.84;76.92
65378;SHT31;51982;51.042;13.806;2024-01-07T03:18:31;3.01;76.58
65378;SHT31;51982;51.042;13.806;2024-01-07T03:20:56;3.05;76.52
65378;SHT31;51982;51.042;13.806;2024-01-07T03:23:21;3.00;76.37
65378;SHT31;51982;51.042;13.806;2024-01-07T03:25:46;2.64;76.73
65378;SHT31;51982;51.042;13.806;2024-01-07T03:28:12;2.61;76.59
65378;SHT31;51982;51.042;13.806;2024-01-07T03:30:37;2.56;76.71
65378;SHT31;51982;51.042;13.806;2024-01-07T03:33:02;2.73;76.59
65378;SHT31;51982;51.042;13.806;2024-01-07T03:35:27;2.66;76.43
65378;SHT31;51982;51.042;13.806;2024-01-07T03:37:53;2.54;76.77
65378;SHT31;51982;51.042;13.806;2024-01-07T03:40:18;2.69;76.62
65378;SHT31;51982;51.042;13.806;2024-01-07T03:42:43;2.79;76.50
65378;SHT31;51982;51.042;13.806;2024-01-07T03:45:09;2.79;76.18
65378;SHT31;51982;51.042;13.806;2024-01-07T03:47:34;2.63;76.24
65378;SHT31;51982;51.042;13.806;2024-01-07T03:49:59;2.57;76.16
65378;SHT31;51982;51.042;13.806;2024-01-07T03:52:24;2.63;76.55
65378;SHT31;51982;51.042;13.806;2024-01-07T03:54:49;2.66;76.40
65378;SHT31;51982;51.042;13.806;2024-01-07T03:57:15;2.66;76.29
65378;SHT31;51982;51.042;13.806;2024-01-07T03:59:40;2.67;75.99
65378;SHT31;51982;51.042;13.806;2024-01-07T04:02:06;2.61;75.98
65378;SHT31;51982;51.042;13.806;2024-01-07T04:04:31;2.66;76.06
65378;SHT31;51982;51.042;13.806;2024-01-07T04:06:56;2.80;76.10
65378;SHT31;51982;51.042;13.806;2024-01-07T04:09:22;2.77;76.06
65378;SHT31;51982;51.042;13.806;2024-01-07T04:11:47;2.64;75.95
65378;SHT31;51982;51.042;13.806;2024-01-07T04:14:15;2.69;76.21
65378;SHT31;51982;51.042;13.806;2024-01-07T04:16:40;2.80;76.19
65378;SHT31;51982;51.042;13.806;2024-01-07T04:19:06;2.64;76.19
65378;SHT31;51982;51.042;13.806;2024-01-07T04:21:31;2.79;76.30
65378;SHT31;51982;51.042;13.806;2024-01-07T04:23:56;2.91;76.14
65378;SHT31;51982;51.042;13.806;2024-01-07T04:26:21;2.91;75.95
65378;SHT31;51982;51.042;13.806;2024-01-07T04:28:47;2.86;75.77
65378;SHT31;51982;51.042;13.806;2024-01-07T04:31:12;2.72;76.09
65378;SHT31;51982;51.042;13.806;2024-01-07T04:33:37;2.86;76.22
65378;SHT31;51982;51.042;13.806;2024-01-07T04:36:02;2.90;76.23
65378;SHT31;51982;51.042;13.806;2024-01-07T04:38:29;2.86;75.99
65378;SHT31;51982;51.042;13.806;2024-01-07T04:40:54;2.86;76.01
65378;SHT31;51982;51.042;13.806;2024-01-07T04:43:19;2.83;75.79
65378;SHT31;51982;51.042;13.806;2024-01-07T04:45:45;2.72;75.97
65378;SHT31;51982;51.042;13.806;2024-01-07T04:48:10;2.73;76.18
65378;SHT31;51982;51.042;13.806;2024-01-07T04:50:36;2.47;76.16
65378;SHT31;51982;51.042;13.806;2024-01-07T04:53:01;2.61;76.31
65378;SHT31;51982;51.042;13.806;2024-01-07T04:55:27;2.70;76.03
65378;SHT31;51982;51.042;13.806;2024-01-07T04:57:52;2.67;76.06
65378;SHT31;51982;51.042;13.806;2024-01-07T05:00:17;2.83;76.06
65378;SHT31;51982;51.042;13.806;2024-01-07T05:02:42;2.70;75.62
65378;SHT31;51982;51.042;13.806;2024-01-07T05:05:08;2.57;75.69
65378;SHT31;51982;51.042;13.806;2024-01-07T05:07:34;2.60;76.07
65378;SHT31;51982;51.042;13.806;2024-01-07T05:09:59;2.57;75.96
65378;SHT31;51982;51.042;13.806;2024-01-07T05:12:24;2.70;75.95
65378;SHT31;51982;51.042;13.806;2024-01-07T05:14:51;2.66;76.03
65378;SHT31;51982;51.042;13.806;2024-01-07T05:17:16;2.79;75.77
65378;SHT31;51982;51.042;13.806;2024-01-07T05:19:41;2.50;75.76
65378;SHT31;51982;51.042;13.806;2024-01-07T05:22:06;2.16;75.80
65378;SHT31;51982;51.042;13.806;2024-01-07T05:24:32;2.42;76.07
65378;SHT31;51982;51.042;13.806;2024-01-07T05:26:57;2.45;75.62
65378;SHT31;51982;51.042;13.806;2024-01-07T05:29:22;2.59;75.57
65378;SHT31;51982;51.042;13.806;2024-01-07T05:31:47;2.63;75.53
65378;SHT31;51982;51.042;13.806;2024-01-07T05:34:12;2.33;75.44
65378;SHT31;51982;51.042;13.806;2024-01-07T05:36:38;2.46;75.73
65378;SHT31;51982;51.042;13.806;2024-01-07T05:39:03;2.39;75.68
65378;SHT31;51982;51.042;13.806;2024-01-07T05:41:29;2.46;75.47
65378;SHT31;51982;51.042;13.806;2024-01-07T05:43:54;2.46;75.36
65378;SHT31;51982;51.042;13.806;2024-01-07T05:46:19;2.47;75.44
65378;SHT31;51982;51.042;13.806;2024-01-07T05:48:46;2.45;75.38
65378;SHT31;51982;51.042;13.806;2024-01-07T05:51:12;2.60;75.33
65378;SHT31;51982;51.042;13.806;2024-01-07T05:53:37;2.28;75.34
65378;SHT31;51982;51.042;13.806;2024-01-07T05:56:03;2.35;75.45
65378;SHT31;51982;51.042;13.806;2024-01-07T05:58:29;2.26;75.35
65378;SHT31;51982;51.042;13.806;2024-01-07T06:00:54;2.39;75.48
65378;SHT31;51982;51.042;13.806;2024-01-07T06:03:19;2.39;75.21
65378;SHT31;51982;51.042;13.806;2024-01-07T06:05:45;2.39;74.96
65378;SHT31;51982;51.042;13.806;2024-01-07T06:08:10;2.26;75.05
65378;SHT31;51982;51.042;13.806;2024-01-07T06:10:35;2.24;75.86
65378;SHT31;51982;51.042;13.806;2024-01-07T06:13:00;2.15;75.53
65378;SHT31;51982;51.042;13.806;2024-01-07T06:15:26;2.09;75.35
65378;SHT31;51982;51.042;13.806;2024-01-07T06:17:51;2.30;75.45
65378;SHT31;51982;51.042;13.806;2024-01-07T06:20:17;2.45;75.09
65378;SHT31;51982;51.042;13.806;2024-01-07T06:22:42;2.30;75.14
65378;SHT31;51982;51.042;13.806;2024-01-07T06:25:07;2.09;75.21
65378;SHT31;51982;51.042;13.806;2024-01-07T06:27:32;2.14;75.09
65378;SHT31;51982;51.042;13.806;2024-01-07T06:29:58;2.01;75.54
65378;SHT31;51982;51.042;13.806;2024-01-07T06:32:23;2.09;75.65
65378;SHT31;51982;51.042;13.806;2024-01-07T06:34:50;2.12;75.30
65378;SHT31;51982;51.042;13.806;2024-01-07T06:37:15;2.32;75.19
65378;SHT31;51982;51.042;13.806;2024-01-07T06:39:41;2.16;75.09
65378;SHT31;51982;51.042;13.806;2024-01-07T06:42:06;2.35;74.96
65378;SHT31;51982;51.042;13.806;2024-01-07T06:44:31;2.42;74.81
65378;SHT31;51982;51.042;13.806;2024-01-07T06:46:56;2.49;74.43
65378;SHT31;51982;51.042;13.806;2024-01-07T06:49:21;2.26;74.33
65378;SHT31;51982;51.042;13.806;2024-01-07T06:51:47;2.28;74.27
65378;SHT31;51982;51.042;13.806;2024-01-07T06:54:12;2.29;74.14
65378;SHT31;51982;51.042;13.806;2024-01-07T06:56:37;1.97;73.93
65378;SHT31;51982;51.042;13.806;2024-01-07T06:59:02;2.28;74.09
65378;SHT31;51982;51.042;13.806;2024-01-07T07:01:27;2.33;73.48
65378;SHT31;51982;51.042;13.806;2024-01-07T07:03:53;2.32;73.35
65378;SHT31;51982;51.042;13.806;2024-01-07T07:06:18;1.89;73.52
65378;SHT31;51982;51.042;13.806;2024-01-07T07:08:43;1.88;73.85
65378;SHT31;51982;51.042;13.806;2024-01-07T07:11:09;1.94;73.73
65378;SHT31;51982;51.042;13.806;2024-01-07T07:13:34;1.84;73.79
65378;SHT31;51982;51.042;13.806;2024-01-07T07:16:00;1.84;73.67
65378;SHT31;51982;51.042;13.806;2024-01-07T07:18:25;1.95;73.68
65378;SHT31;51982;51.042;13.806;2024-01-07T07:20:50;2.04;73.52
65378;SHT31;51982;51.042;13.806;2024-01-07T07:23:16;2.09;73.48
65378;SHT31;51982;51.042;13.806;2024-01-07T07:25:41;2.19;73.36
65378;SHT31;51982;51.042;13.806;2024-01-07T07:28:07;2.22;73.25
65378;SHT31;51982;51.042;13.806;2024-01-07T07:30:32;2.26;73.54
65378;SHT31;51982;51.042;13.806;2024-01-07T07:32:57;2.11;73.71
65378;SHT31;51982;51.042;13.806;2024-01-07T07:35:22;2.16;73.61
65378;SHT31;51982;51.042;13.806;2024-01-07T07:37:47;2.29;73.41
65378;SHT31;51982;51.042;13.806;2024-01-07T07:40:13;2.14;73.10
65378;SHT31;51982;51.042;13.806;2024-01-07T07:42:38;2.25;72.82
65378;SHT31;51982;51.042;13.806;2024-01-07T07:45:04;2.28;72.93
65378;SHT31;51982;51.042;13.806;2024-01-07T07:47:29;2.06;73.22
65378;SHT31;51982;51.042;13.806;2024-01-07T07:49:55;2.18;73.39
65378;SHT31;51982;51.042;13.806;2024-01-07T07:52:20;2.16;73.26
65378;SHT31;51982;51.042;13.806;2024-01-07T07:54:50;2.05;73.30
65378;SHT31;51982;51.042;13.806;2024-01-07T07:57:15;2.24;73.16
65378;SHT31;51982;51.042;13.806;2024-01-07T07:59:40;2.21;72.76
65378;SHT31;51982;51.042;13.806;2024-01-07T08:02:06;2.12;72.48
65378;SHT31;51982;51.042;13.806;2024-01-07T08:04:31;1.77;72.63
65378;SHT31;51982;51.042;13.806;2024-01-07T08:06:56;1.68;72.92
65378;SHT31;51982;51.042;13.806;2024-01-07T08:09:22;1.84;72.94
65378;SHT31;51982;51.042;13.806;2024-01-07T08:11:48;2.09;72.82
65378;SHT31;51982;51.042;13.806;2024-01-07T08:14:13;2.22;72.79
65378;SHT31;51982;51.042;13.806;2024-01-07T08:16:38;2.15;72.24
65378;SHT31;51982;51.042;13.806;2024-01-07T08:19:03;2.09;72.33
65378;SHT31;51982;51.042;13.806;2024-01-07T08:21:29;2.16;72.24
65378;SHT31;51982;51.042;13.806;2024-01-07T08:23:54;2.14;71.98
65378;SHT31;51982;51.042;13.806;2024-01-07T08:26:20;2.11;71.88
65378;SHT31;51982;51.042;13.806;2024-01-07T08:28:45;2.18;72.10
65378;SHT31;51982;51.042;13.806;2024-01-07T08:31:10;2.28;71.93
65378;SHT31;51982;51.042;13.806;2024-01-07T08:33:35;2.25;71.85
65378;SHT31;51982;51.042;13.806;2024-01-07T08:36:01;2.21;71.78
65378;SHT31;51982;51.042;13.806;2024-01-07T08:38:26;2.26;71.39
65378;SHT31;51982;51.042;13.806;2024-01-07T08:40:51;2.06;71.19
65378;SHT31;51982;51.042;13.806;2024-01-07T08:43:16;2.22;71.14
65378;SHT31;51982;51.042;13.806;2024-01-07T08:45:41;1.89;71.13
65378;SHT31;51982;51.042;13.806;2024-01-07T08:48:07;2.04;71.52
65378;SHT31;51982;51.042;13.806;2024-01-07T08:50:32;2.16;71.25
65378;SHT31;51982;51.042;13.806;2024-01-07T08:52:57;2.33;70.87
65378;SHT31;51982;51.042;13.806;2024-01-07T08:55:22;2.39;70.62
65378;SHT31;51982;51.042;13.806;2024-01-07T08:57:48;2.35;70.53
65378;SHT31;51982;51.042;13.806;2024-01-07T09:00:14;2.36;70.26
65378;SHT31;51982;51.042;13.806;2024-01-07T09:02:40;2.37;70.39
65378;SHT31;51982;51.042;13.806;2024-01-07T09:05:05;2.35;70.42
65378;SHT31;51982;51.042;13.806;2024-01-07T09:07:31;2.14;70.64
65378;SHT31;51982;51.042;13.806;2024-01-07T09:09:57;1.95;70.87
65378;SHT31;51982;51.042;13.806;2024-01-07T09:12:24;2.24;70.71
65378;SHT31;51982;51.042;13.806;2024-01-07T09:14:50;2.32;70.23
65378;SHT31;51982;51.042;13.806;2024-01-07T09:17:15;1.82;70.56
65378;SHT31;51982;51.042;13.806;2024-01-07T09:19:42;2.09;70.35
65378;SHT31;51982;51.042;13.806;2024-01-07T09:22:07;2.26;70.19
65378;SHT31;51982;51.042;13.806;2024-01-07T09:24:32;2.09;70.08
65378;SHT31;51982;51.042;13.806;2024-01-07T09:26:58;1.78;70.37
65378;SHT31;51982;51.042;13.806;2024-01-07T09:29:23;1.71;71.02
65378;SHT31;51982;51.042;13.806;2024-01-07T09:31:48;1.99;70.76
65378;SHT31;51982;51.042;13.806;2024-01-07T09:34:13;1.89;70.71
65378;SHT31;51982;51.042;13.806;2024-01-07T09:36:39;2.08;70.43
65378;SHT31;51982;51.042;13.806;2024-01-07T09:39:05;2.15;70.25
65378;SHT31;51982;51.042;13.806;2024-01-07T09:41:31;2.19;69.89
65378;SHT31;51982;51.042;13.806;2024-01-07T09:43:57;1.99;69.94
65378;SHT31;51982;51.042;13.806;2024-01-07T09:46:24;2.04;70.03
65378;SHT31;51982;51.042;13.806;2024-01-07T09:48:49;2.12;70.38
65378;SHT31;51982;51.042;13.806;2024-01-07T09:51:15;1.85;70.53
65378;SHT31;51982;51.042;13.806;2024-01-07T09:53:44;2.12;70.43
65378;SHT31;51982;51.042;13.806;2024-01-07T09:56:23;2.05;70.35
65378;SHT31;51982;51.042;13.806;2024-01-07T09:58:50;1.79;70.47
65378;SHT31;51982;51.042;13.806;2024-01-07T10:01:18;1.91;70.48
65378;SHT31;51982;51.042;13.806;2024-01-07T10:03:43;2.14;70.31
65378;SHT31;51982;51.042;13.806;2024-01-07T10:06:10;2.47;70.22
65378;SHT31;51982;51.042;13.806;2024-01-07T10:08:36;2.45;69.69
65378;SHT31;51982;51.042;13.806;2024-01-07T10:11:02;2.32;69.59
65378;SHT31;51982;51.042;13.806;2024-01-07T10:13:28;2.08;69.70
65378;SHT31;51982;51.042;13.806;2024-01-07T10:15:53;2.25;69.99
65378;SHT31;51982;51.042;13.806;2024-01-07T10:18:19;2.32;70.02
65378;SHT31;51982;51.042;13.806;2024-01-07T10:20:45;2.40;69.64
65378;SHT31;51982;51.042;13.806;2024-01-07T10:23:10;2.30;69.68
65378;SHT31;51982;51.042;13.806;2024-01-07T10:25:35;2.18;69.87
65378;SHT31;51982;51.042;13.806;2024-01-07T10:28:02;1.99;69.80
65378;SHT31;51982;51.042;13.806;2024-01-07T10:30:31;1.88;69.99
65378;SHT31;51982;51.042;13.806;2024-01-07T10:32:57;1.79;70.14
65378;SHT31;51982;51.042;13.806;2024-01-07T10:35:29;1.94;69.91
65378;SHT31;51982;51.042;13.806;2024-01-07T10:37:58;1.75;69.70
65378;SHT31;51982;51.042;13.806;2024-01-07T10:40:26;1.68;69.84
65378;SHT31;51982;51.042;13.806;2024-01-07T10:42:52;1.93;69.91
65378;SHT31;51982;51.042;13.806;2024-01-07T10:45:17;1.84;69.57
65378;SHT31;51982;51.042;13.806;2024-01-07T10:47:48;1.94;69.35
65378;SHT31;51982;51.042;13.806;2024-01-07T10:50:15;1.74;69.17
65378;SHT31;51982;51.042;13.806;2024-01-07T10:52:42;1.73;69.13
65378;SHT31;51982;51.042;13.806;2024-01-07T10:55:13;1.86;69.30
65378;SHT31;51982;51.042;13.806;2024-01-07T11:00:07;2.04;68.52
65378;SHT31;51982;51.042;13.806;2024-01-07T11:02:44;1.74;67.98
65378;SHT31;51982;51.042;13.806;2024-01-07T11:05:22;1.58;68.32
65378;SHT31;51982;51.042;13.806;2024-01-07T11:07:57;1.68;68.21
65378;SHT31;51982;51.042;13.806;2024-01-07T11:10:37;1.95;68.08
65378;SHT31;51982;51.042;13.806;2024-01-07T11:13:03;1.78;67.77
65378;SHT31;51982;51.042;13.806;2024-01-07T11:18:17;2.14;67.15
65378;SHT31;51982;51.042;13.806;2024-01-07T11:20:44;2.35;67.01
65378;SHT31;51982;51.042;13.806;2024-01-07T11:23:32;1.98;66.22
65378;SHT31;51982;51.042;13.806;2024-01-07T11:25:59;1.67;67.07
65378;SHT31;51982;51.042;13.806;2024-01-07T11:28:44;1.70;67.18
65378;SHT31;51982;51.042;13.806;2024-01-07T11:31:09;2.12;66.96
65378;SHT31;51982;51.042;13.806;2024-01-07T11:33:38;2.14;66.48
65378;SHT31;51982;51.042;13.806;2024-01-07T11:36:06;2.26;66.27
65378;SHT31;51982;51.042;13.806;2024-01-07T11:38:34;2.33;65.83
65378;SHT31;51982;51.042;13.806;2024-01-07T11:41:00;2.36;65.46
65378;SHT31;51982;51.042;13.806;2024-01-07T11:43:26;2.37;65.60
65378;SHT31;51982;51.042;13.806;2024-01-07T11:45:51;2.52;65.42
65378;SHT31;51982;51.042;13.806;2024-01-07T11:48:18;2.61;65.44
65378;SHT31;51982;51.042;13.806;2024-01-07T11:50:43;2.69;64.95
65378;SHT31;51982;51.042;13.806;2024-01-07T11:53:08;2.56;64.92
65378;SHT31;51982;51.042;13.806;2024-01-07T11:55:34;2.57;64.96
65378;SHT31;51982;51.042;13.806;2024-01-07T11:58:02;2.33;64.97
65378;SHT31;51982;51.042;13.806;2024-01-07T12:00:30;2.43;65.17
65378;SHT31;51982;51.042;13.806;2024-01-07T12:02:56;2.42;65.13
65378;SHT31;51982;51.042;13.806;2024-01-07T12:05:21;2.52;65.18
65378;SHT31;51982;51.042;13.806;2024-01-07T12:07:46;2.39;65.36
65378;SHT31;51982;51.042;13.806;2024-01-07T12:10:11;2.45;65.55
65378;SHT31;51982;51.042;13.806;2024-01-07T12:12:39;2.26;65.62
65378;SHT31;51982;51.042;13.806;2024-01-07T12:15:05;2.30;65.63
65378;SHT31;51982;51.042;13.806;2024-01-07T12:17:31;2.46;65.63
65378;SHT31;51982;51.042;13.806;2024-01-07T12:19:56;2.36;65.75
65378;SHT31;51982;51.042;13.806;2024-01-07T12:22:21;2.40;65.85
65378;SHT31;51982;51.042;13.806;2024-01-07T12:24:47;2.47;65.71
65378;SHT31;51982;51.042;13.806;2024-01-07T12:27:24;2.43;65.63
65378;SHT31;51982;51.042;13.806;2024-01-07T12:29:57;1.79;65.62
65378;SHT31;51982;51.042;13.806;2024-01-07T12:32:23;1.77;66.26
65378;SHT31;51982;51.042;13.806;2024-01-07T12:34:51;2.04;66.47
65378;SHT31;51982;51.042;13.806;2024-01-07T12:37:16;1.95;66.26
65378;SHT31;51982;51.042;13.806;2024-01-07T12:39:41;2.01;66.38
65378;SHT31;51982;51.042;13.806;2024-01-07T12:42:07;1.64;66.63
65378;SHT31;51982;51.042;13.806;2024-01-07T12:44:32;1.71;67.00
65378;SHT31;51982;51.042;13.806;2024-01-07T12:46:58;1.37;67.46
65378;SHT31;51982;51.042;13.806;2024-01-07T12:49:23;1.85;67.88
65378;SHT31;51982;51.042;13.806;2024-01-07T12:51:48;2.04;67.08
65378;SHT31;51982;51.042;13.806;2024-01-07T12:54:13;2.12;66.89
65378;SHT31;51982;51.042;13.806;2024-01-07T12:56:39;1.47;66.68
65378;SHT31;51982;51.042;13.806;2024-01-07T12:59:09;1.82;67.35
65378;SHT31;51982;51.042;13.806;2024-01-07T13:01:34;1.82;68.35
65378;SHT31;51982;51.042;13.806;2024-01-07T13:04:01;1.63;67.17
65378;SHT31;51982;51.042;13.806;2024-01-07T13:06:27;1.84;67.34
65378;SHT31;51982;51.042;13.806;2024-01-07T13:08:52;1.82;66.81
65378;SHT31;51982;51.042;13.806;2024-01-07T13:11:20;1.73;66.77
65378;SHT31;51982;51.042;13.806;2024-01-07T13:13:46;1.81;66.71
65378;SHT31;51982;51.042;13.806;2024-01-07T13:16:12;1.94;66.78
65378;SHT31;51982;51.042;13.806;2024-01-07T13:18:53;1.68;67.11
65378;SHT31;51982;51.042;13.806;2024-01-07T14:55:03;1.74;67.15
65378;SHT31;51982;51.042;13.806;2024-01-07T15:44:22;1.68;68.08
65378;SHT31;51982;51.042;13.806;2024-01-07T18:16:55;1.50;69.76
65378;SHT31;51982;51.042;13.806;2024-01-07T18:36:37;1.13;70.28
65378;SHT31;51982;51.042;13.806;2024-01-07T18:43:20;1.64;69.88
65378;SHT31;51982;51.042;13.806;2024-01-07T18:45:54;1.70;69.85
65378;SHT31;51982;51.042;13.806;2024-01-07T18:48:40;1.77;69.74
65378;SHT31;51982;51.042;13.806;2024-01-07T18:51:16;1.74;69.80
65378;SHT31;51982;51.042;13.806;2024-01-07T18:54:21;1.75;69.71
65378;SHT31;51982;51.042;13.806;2024-01-07T18:57:08;1.77;69.89
65378;SHT31;51982;51.042;13.806;2024-01-07T19:12:49;1.98;69.97
65378;SHT31;51982;51.042;13.806;2024-01-07T19:15:37;1.98;70.13
65378;SHT31;51982;51.042;13.806;2024-01-07T19:18:04;1.61;69.93
65378;SHT31;51982;51.042;13.806;2024-01-07T19:20:29;1.79;70.27
65378;SHT31;51982;51.042;13.806;2024-01-07T19:22:57;1.64;70.44
65378;SHT31;51982;51.042;13.806;2024-01-07T19:25:23;1.75;70.36
65378;SHT31;51982;51.042;13.806;2024-01-07T19:27:48;1.75;70.21
65378;SHT31;51982;51.042;13.806;2024-01-07T19:30:15;1.81;70.54
65378;SHT31;51982;51.042;13.806;2024-01-07T19:32:40;1.73;70.24
65378;SHT31;51982;51.042;13.806;2024-01-07T19:35:06;1.61;70.32
65378;SHT31;51982;51.042;13.806;2024-01-07T19:37:32;1.68;70.46
65378;SHT31;51982;51.042;13.806;2024-01-07T19:39:58;1.71;70.61
65378;SHT31;51982;51.042;13.806;2024-01-07T19:42:23;1.78;70.41
65378;SHT31;51982;51.042;13.806;2024-01-07T19:44:48;1.82;70.40
65378;SHT31;51982;51.042;13.806;2024-01-07T19:47:13;1.84;70.33
65378;SHT31;51982;51.042;13.806;2024-01-07T19:49:39;1.93;70.32
65378;SHT31;51982;51.042;13.806;2024-01-07T19:52:04;1.86;70.30
65378;SHT31;51982;51.042;13.806;2024-01-07T19:54:31;1.81;70.42
65378;SHT31;51982;51.042;13.806;2024-01-07T19:56:56;1.57;70.48
65378;SHT31;51982;51.042;13.806;2024-01-07T19:59:21;1.55;70.63
65378;SHT31;51982;51.042;13.806;2024-01-07T20:01:57;1.43;70.80
65378;SHT31;51982;51.042;13.806;2024-01-07T20:04:26;1.60;70.61
65378;SHT31;51982;51.042;13.806;2024-01-07T20:06:52;1.57;70.31
65378;SHT31;51982;51.042;13.806;2024-01-07T20:09:19;1.53;70.50
65378;SHT31;51982;51.042;13.806;2024-01-07T20:11:44;1.65;70.57
65378;SHT31;51982;51.042;13.806;2024-01-07T20:14:11;1.81;70.28
65378;SHT31;51982;51.042;13.806;2024-01-07T20:16:37;1.78;69.88
65378;SHT31;51982;51.042;13.806;2024-01-07T20:22:58;1.36;70.30
65378;SHT31;51982;51.042;13.806;2024-01-07T20:25:31;1.47;70.32
65378;SHT31;51982;51.042;13.806;2024-01-07T20:28:27;1.48;70.20
65378;SHT31;51982;51.042;13.806;2024-01-07T20:31:18;1.55;70.08
65378;SHT31;51982;51.042;13.806;2024-01-07T20:33:45;1.70;70.29
65378;SHT31;51982;51.042;13.806;2024-01-07T20:36:22;1.68;69.99
65378;SHT31;51982;51.042;13.806;2024-01-07T20:38:56;1.75;69.89
65378;SHT31;51982;51.042;13.806;2024-01-07T20:41:49;1.55;69.55
65378;SHT31;51982;51.042;13.806;2024-01-07T20:44:39;1.39;69.58
65378;SHT31;51982;51.042;13.806;2024-01-07T20:48:03;1.50;69.51
65378;SHT31;51982;51.042;13.806;2024-01-07T20:50:37;1.23;69.61
65378;SHT31;51982;51.042;13.806;2024-01-07T20:53:03;1.26;70.37
65378;SHT31;51982;51.042;13.806;2024-01-07T20:55:40;0.95;70.71
65378;SHT31;51982;51.042;13.806;2024-01-07T20:58:15;0.79;71.22
65378;SHT31;51982;51.042;13.806;2024-01-07T21:00:46;0.59;71.49
65378;SHT31;51982;51.042;13.806;2024-01-07T21:03:17;0.78;71.82